sensor_id;sensor_type;location;lat;lon;timestamp;pressure;altitude;pressure_sealevel;temperature
56286;BMP180;42191;47.562;9.686;2023-04-24T00:00:31;96064.00;;;15.30
56286;BMP180;42191;47.562;9.686;2023-04-24T00:02:57;96066.00;;;15.30
56286;BMP180;42191;47.562;9.686;2023-04-24T00:05:24;96062.00;;;15.30
56286;BMP180;42191;47.562;9.686;2023-04-24T00:07:50;96062.00;;;15.30
56286;BMP180;42191;47.562;9.686;2023-04-24T00:10:20;96059.00;;;15.30
56286;BMP180;42191;47.562;9.686;2023-04-24T00:12:46;96066.00;;;15.30
56286;BMP180;42191;47.562;9.686;2023-04-24T00:15:12;96057.00;;;15.20
56286;BMP180;42191;47.562;9.686;2023-04-24T00:17:38;96065.00;;;15.20
56286;BMP180;42191;47.562;9.686;2023-04-24T00:20:05;96052.00;;;15.20
56286;BMP180;42191;47.562;9.686;2023-04-24T00:22:33;96067.00;;;15.20
56286;BMP180;42191;47.562;9.686;2023-04-24T00:24:59;96049.00;;;15.20
56286;BMP180;42191;47.562;9.686;2023-04-24T00:27:25;96054.00;;;15.10
56286;BMP180;42191;47.562;9.686;2023-04-24T00:29:51;96038.00;;;15.10
56286;BMP180;42191;47.562;9.686;2023-04-24T00:32:17;96036.00;;;15.10
56286;BMP180;42191;47.562;9.686;2023-04-24T00:34:43;96041.00;;;15.10
56286;BMP180;42191;47.562;9.686;2023-04-24T00:37:09;96041.00;;;15.10
56286;BMP180;42191;47.562;9.686;2023-04-24T00:39:35;96042.00;;;15.10
56286;BMP180;42191;47.562;9.686;2023-04-24T00:42:01;96034.00;;;15.10
56286;BMP180;42191;47.562;9.686;2023-04-24T00:44:28;96039.00;;;15.10
56286;BMP180;42191;47.562;9.686;2023-04-24T00:46:55;96042.00;;;15.10
56286;BMP180;42191;47.562;9.686;2023-04-24T00:49:22;96040.00;;;15.10
56286;BMP180;42191;47.562;9.686;2023-04-24T00:51:48;96037.00;;;15.00
56286;BMP180;42191;47.562;9.686;2023-04-24T00:54:15;96033.00;;;15.10
56286;BMP180;42191;47.562;9.686;2023-04-24T00:56:42;96036.00;;;15.00
56286;BMP180;42191;47.562;9.686;2023-04-24T00:59:09;96036.00;;;15.00
56286;BMP180;42191;47.562;9.686;2023-04-24T01:01:37;96030.00;;;15.00
56286;BMP180;42191;47.562;9.686;2023-04-24T01:04:03;96039.00;;;15.00
56286;BMP180;42191;47.562;9.686;2023-04-24T01:06:30;96034.00;;;15.00
56286;BMP180;42191;47.562;9.686;2023-04-24T01:08:58;96035.00;;;15.00
56286;BMP180;42191;47.562;9.686;2023-04-24T01:11:25;96030.00;;;15.00
56286;BMP180;42191;47.562;9.686;2023-04-24T01:13:52;96027.00;;;15.00
56286;BMP180;42191;47.562;9.686;2023-04-24T01:16:18;96031.00;;;15.00
56286;BMP180;42191;47.562;9.686;2023-04-24T01:18:46;96029.00;;;15.00
56286;BMP180;42191;47.562;9.686;2023-04-24T01:21:15;96026.00;;;15.00
56286;BMP180;42191;47.562;9.686;2023-04-24T01:23:45;96029.00;;;15.00
56286;BMP180;42191;47.562;9.686;2023-04-24T01:26:13;96029.00;;;15.00
56286;BMP180;42191;47.562;9.686;2023-04-24T01:28:40;96035.00;;;14.90
56286;BMP180;42191;47.562;9.686;2023-04-24T01:31:06;96031.00;;;14.90
56286;BMP180;42191;47.562;9.686;2023-04-24T01:33:33;96031.00;;;14.90
56286;BMP180;42191;47.562;9.686;2023-04-24T01:35:59;96032.00;;;14.90
56286;BMP180;42191;47.562;9.686;2023-04-24T01:38:25;96021.00;;;14.80
56286;BMP180;42191;47.562;9.686;2023-04-24T01:40:51;96032.00;;;14.80
56286;BMP180;42191;47.562;9.686;2023-04-24T01:43:18;96035.00;;;14.80
56286;BMP180;42191;47.562;9.686;2023-04-24T01:45:45;96027.00;;;14.70
56286;BMP180;42191;47.562;9.686;2023-04-24T01:48:12;96037.00;;;14.70
56286;BMP180;42191;47.562;9.686;2023-04-24T01:50:39;96033.00;;;14.70
56286;BMP180;42191;47.562;9.686;2023-04-24T01:53:05;96034.00;;;14.60
56286;BMP180;42191;47.562;9.686;2023-04-24T01:55:31;96037.00;;;14.60
56286;BMP180;42191;47.562;9.686;2023-04-24T01:57:58;96035.00;;;14.60
56286;BMP180;42191;47.562;9.686;2023-04-24T02:00:25;96043.00;;;14.60
56286;BMP180;42191;47.562;9.686;2023-04-24T02:02:51;96051.00;;;14.60
56286;BMP180;42191;47.562;9.686;2023-04-24T02:05:17;96053.00;;;14.60
56286;BMP180;42191;47.562;9.686;2023-04-24T02:07:44;96047.00;;;14.50
56286;BMP180;42191;47.562;9.686;2023-04-24T02:10:10;96047.00;;;14.50
56286;BMP180;42191;47.562;9.686;2023-04-24T02:12:37;96041.00;;;14.50
56286;BMP180;42191;47.562;9.686;2023-04-24T02:15:03;96030.00;;;14.50
56286;BMP180;42191;47.562;9.686;2023-04-24T02:17:29;96039.00;;;14.50
56286;BMP180;42191;47.562;9.686;2023-04-24T02:19:56;96041.00;;;14.50
56286;BMP180;42191;47.562;9.686;2023-04-24T02:22:22;96032.00;;;14.50
56286;BMP180;42191;47.562;9.686;2023-04-24T02:24:48;96036.00;;;14.50
56286;BMP180;42191;47.562;9.686;2023-04-24T02:27:15;96039.00;;;14.50
56286;BMP180;42191;47.562;9.686;2023-04-24T02:29:41;96038.00;;;14.40
56286;BMP180;42191;47.562;9.686;2023-04-24T02:32:07;96036.00;;;14.40
56286;BMP180;42191;47.562;9.686;2023-04-24T02:34:37;96035.00;;;14.40
56286;BMP180;42191;47.562;9.686;2023-04-24T02:37:03;96040.00;;;14.40
56286;BMP180;42191;47.562;9.686;2023-04-24T02:39:29;96035.00;;;14.40
56286;BMP180;42191;47.562;9.686;2023-04-24T02:41:55;96038.00;;;14.40
56286;BMP180;42191;47.562;9.686;2023-04-24T02:44:21;96036.00;;;14.40
56286;BMP180;42191;47.562;9.686;2023-04-24T02:46:48;96036.00;;;14.40
56286;BMP180;42191;47.562;9.686;2023-04-24T02:49:14;96038.00;;;14.40
56286;BMP180;42191;47.562;9.686;2023-04-24T02:51:41;96035.00;;;14.40
56286;BMP180;42191;47.562;9.686;2023-04-24T02:54:08;96031.00;;;14.40
56286;BMP180;42191;47.562;9.686;2023-04-24T02:56:35;96038.00;;;14.40
56286;BMP180;42191;47.562;9.686;2023-04-24T02:59:01;96042.00;;;14.40
56286;BMP180;42191;47.562;9.686;2023-04-24T03:01:27;96041.00;;;14.40
56286;BMP180;42191;47.562;9.686;2023-04-24T03:03:53;96046.00;;;14.40
56286;BMP180;42191;47.562;9.686;2023-04-24T03:06:20;96038.00;;;14.40
56286;BMP180;42191;47.562;9.686;2023-04-24T03:08:47;96039.00;;;14.40
56286;BMP180;42191;47.562;9.686;2023-04-24T03:11:13;96047.00;;;14.40
56286;BMP180;42191;47.562;9.686;2023-04-24T03:13:39;96041.00;;;14.40
56286;BMP180;42191;47.562;9.686;2023-04-24T03:16:05;96047.00;;;14.40
56286;BMP180;42191;47.562;9.686;2023-04-24T03:18:32;96030.00;;;14.40
56286;BMP180;42191;47.562;9.686;2023-04-24T03:20:58;96031.00;;;14.40
56286;BMP180;42191;47.562;9.686;2023-04-24T03:23:24;96033.00;;;14.40
56286;BMP180;42191;47.562;9.686;2023-04-24T03:25:50;96030.00;;;14.40
56286;BMP180;42191;47.562;9.686;2023-04-24T03:28:17;96031.00;;;14.40
56286;BMP180;42191;47.562;9.686;2023-04-24T03:30:43;96027.00;;;14.40
56286;BMP180;42191;47.562;9.686;2023-04-24T03:33:09;96032.00;;;14.40
56286;BMP180;42191;47.562;9.686;2023-04-24T03:35:35;96032.00;;;14.40
56286;BMP180;42191;47.562;9.686;2023-04-24T03:38:02;96023.00;;;14.40
56286;BMP180;42191;47.562;9.686;2023-04-24T03:40:30;96030.00;;;14.40
56286;BMP180;42191;47.562;9.686;2023-04-24T03:42:56;96025.00;;;14.40
56286;BMP180;42191;47.562;9.686;2023-04-24T03:45:22;96035.00;;;14.40
56286;BMP180;42191;47.562;9.686;2023-04-24T03:47:48;96039.00;;;14.40
56286;BMP180;42191;47.562;9.686;2023-04-24T03:50:14;96039.00;;;14.40
56286;BMP180;42191;47.562;9.686;2023-04-24T03:52:40;96034.00;;;14.40
56286;BMP180;42191;47.562;9.686;2023-04-24T03:55:07;96035.00;;;14.40
56286;BMP180;42191;47.562;9.686;2023-04-24T03:57:33;96029.00;;;14.40
56286;BMP180;42191;47.562;9.686;2023-04-24T03:59:59;96036.00;;;14.40
56286;BMP180;42191;47.562;9.686;2023-04-24T04:02:25;96035.00;;;14.40
56286;BMP180;42191;47.562;9.686;2023-04-24T04:04:52;96037.00;;;14.40
56286;BMP180;42191;47.562;9.686;2023-04-24T04:07:18;96051.00;;;14.40
56286;BMP180;42191;47.562;9.686;2023-04-24T04:09:44;96048.00;;;14.40
56286;BMP180;42191;47.562;9.686;2023-04-24T04:12:10;96051.00;;;14.40
56286;BMP180;42191;47.562;9.686;2023-04-24T04:14:36;96049.00;;;14.40
56286;BMP180;42191;47.562;9.686;2023-04-24T04:17:02;96049.00;;;14.40
56286;BMP180;42191;47.562;9.686;2023-04-24T04:19:28;96050.00;;;14.40
56286;BMP180;42191;47.562;9.686;2023-04-24T04:21:54;96046.00;;;14.40
56286;BMP180;42191;47.562;9.686;2023-04-24T04:24:22;96047.00;;;14.40
56286;BMP180;42191;47.562;9.686;2023-04-24T04:26:48;96055.00;;;14.40
56286;BMP180;42191;47.562;9.686;2023-04-24T04:29:17;96047.00;;;14.40
56286;BMP180;42191;47.562;9.686;2023-04-24T04:31:46;96040.00;;;14.40
56286;BMP180;42191;47.562;9.686;2023-04-24T04:34:13;96053.00;;;14.40
56286;BMP180;42191;47.562;9.686;2023-04-24T04:36:42;96047.00;;;14.40
56286;BMP180;42191;47.562;9.686;2023-04-24T04:39:10;96051.00;;;14.40
56286;BMP180;42191;47.562;9.686;2023-04-24T04:41:36;96053.00;;;14.40
56286;BMP180;42191;47.562;9.686;2023-04-24T04:44:03;96061.00;;;14.40
56286;BMP180;42191;47.562;9.686;2023-04-24T04:46:31;96061.00;;;14.40
56286;BMP180;42191;47.562;9.686;2023-04-24T04:49:00;96055.00;;;14.40
56286;BMP180;42191;47.562;9.686;2023-04-24T04:52:02;96053.00;;;14.40
56286;BMP180;42191;47.562;9.686;2023-04-24T04:54:28;96068.00;;;14.40
56286;BMP180;42191;47.562;9.686;2023-04-24T04:56:55;96075.00;;;14.40
56286;BMP180;42191;47.562;9.686;2023-04-24T04:59:21;96067.00;;;14.40
56286;BMP180;42191;47.562;9.686;2023-04-24T05:01:47;96068.00;;;14.40
56286;BMP180;42191;47.562;9.686;2023-04-24T05:04:13;96071.00;;;14.40
56286;BMP180;42191;47.562;9.686;2023-04-24T05:06:39;96078.00;;;14.40
56286;BMP180;42191;47.562;9.686;2023-04-24T05:09:06;96082.00;;;14.40
56286;BMP180;42191;47.562;9.686;2023-04-24T05:11:33;96085.00;;;14.40
56286;BMP180;42191;47.562;9.686;2023-04-24T05:13:59;96089.00;;;14.40
56286;BMP180;42191;47.562;9.686;2023-04-24T05:16:26;96087.00;;;14.40
56286;BMP180;42191;47.562;9.686;2023-04-24T05:18:52;96100.00;;;14.40
56286;BMP180;42191;47.562;9.686;2023-04-24T05:21:18;96099.00;;;14.40
56286;BMP180;42191;47.562;9.686;2023-04-24T05:23:44;96103.00;;;14.40
56286;BMP180;42191;47.562;9.686;2023-04-24T05:26:10;96095.00;;;14.40
56286;BMP180;42191;47.562;9.686;2023-04-24T05:28:36;96090.00;;;14.40
56286;BMP180;42191;47.562;9.686;2023-04-24T05:31:03;96093.00;;;14.40
56286;BMP180;42191;47.562;9.686;2023-04-24T05:33:29;96103.00;;;14.40
56286;BMP180;42191;47.562;9.686;2023-04-24T05:35:55;96089.00;;;14.40
56286;BMP180;42191;47.562;9.686;2023-04-24T05:38:21;96100.00;;;14.40
56286;BMP180;42191;47.562;9.686;2023-04-24T05:40:48;96098.00;;;14.40
56286;BMP180;42191;47.562;9.686;2023-04-24T05:43:14;96108.00;;;14.40
56286;BMP180;42191;47.562;9.686;2023-04-24T05:45:40;96115.00;;;14.40
56286;BMP180;42191;47.562;9.686;2023-04-24T05:48:06;96105.00;;;14.40
56286;BMP180;42191;47.562;9.686;2023-04-24T05:50:32;96120.00;;;14.40
56286;BMP180;42191;47.562;9.686;2023-04-24T05:52:58;96121.00;;;14.40
56286;BMP180;42191;47.562;9.686;2023-04-24T05:55:27;96140.00;;;14.40
56286;BMP180;42191;47.562;9.686;2023-04-24T05:57:53;96136.00;;;14.40
56286;BMP180;42191;47.562;9.686;2023-04-24T06:00:20;96149.00;;;14.40
56286;BMP180;42191;47.562;9.686;2023-04-24T06:02:46;96145.00;;;14.40
56286;BMP180;42191;47.562;9.686;2023-04-24T06:05:13;96151.00;;;14.40
56286;BMP180;42191;47.562;9.686;2023-04-24T06:07:39;96160.00;;;14.40
56286;BMP180;42191;47.562;9.686;2023-04-24T06:10:06;96166.00;;;14.40
56286;BMP180;42191;47.562;9.686;2023-04-24T06:12:32;96170.00;;;14.40
56286;BMP180;42191;47.562;9.686;2023-04-24T06:14:58;96170.00;;;14.40
56286;BMP180;42191;47.562;9.686;2023-04-24T06:17:25;96167.00;;;14.50
56286;BMP180;42191;47.562;9.686;2023-04-24T06:19:51;96173.00;;;14.40
56286;BMP180;42191;47.562;9.686;2023-04-24T06:22:17;96170.00;;;14.40
56286;BMP180;42191;47.562;9.686;2023-04-24T06:24:43;96170.00;;;14.40
56286;BMP180;42191;47.562;9.686;2023-04-24T06:27:09;96168.00;;;14.40
56286;BMP180;42191;47.562;9.686;2023-04-24T06:29:37;96178.00;;;14.40
56286;BMP180;42191;47.562;9.686;2023-04-24T06:32:03;96171.00;;;14.40
56286;BMP180;42191;47.562;9.686;2023-04-24T06:34:29;96186.00;;;14.40
56286;BMP180;42191;47.562;9.686;2023-04-24T06:36:56;96186.00;;;14.40
56286;BMP180;42191;47.562;9.686;2023-04-24T06:39:22;96185.00;;;14.50
56286;BMP180;42191;47.562;9.686;2023-04-24T06:41:48;96175.00;;;14.50
56286;BMP180;42191;47.562;9.686;2023-04-24T06:44:14;96192.00;;;14.50
56286;BMP180;42191;47.562;9.686;2023-04-24T06:46:41;96203.00;;;14.50
56286;BMP180;42191;47.562;9.686;2023-04-24T06:49:07;96202.00;;;14.50
56286;BMP180;42191;47.562;9.686;2023-04-24T06:51:33;96210.00;;;14.50
56286;BMP180;42191;47.562;9.686;2023-04-24T06:53:59;96207.00;;;14.50
56286;BMP180;42191;47.562;9.686;2023-04-24T06:56:26;96206.00;;;14.50
56286;BMP180;42191;47.562;9.686;2023-04-24T06:58:52;96213.00;;;14.60
56286;BMP180;42191;47.562;9.686;2023-04-24T07:01:19;96219.00;;;14.60
56286;BMP180;42191;47.562;9.686;2023-04-24T07:03:45;96222.00;;;14.60
56286;BMP180;42191;47.562;9.686;2023-04-24T07:06:11;96237.00;;;14.60
56286;BMP180;42191;47.562;9.686;2023-04-24T07:08:38;96235.00;;;14.60
56286;BMP180;42191;47.562;9.686;2023-04-24T07:11:04;96234.00;;;14.60
56286;BMP180;42191;47.562;9.686;2023-04-24T07:13:31;96231.00;;;14.60
56286;BMP180;42191;47.562;9.686;2023-04-24T07:15:57;96233.00;;;14.60
56286;BMP180;42191;47.562;9.686;2023-04-24T07:18:23;96232.00;;;14.70
56286;BMP180;42191;47.562;9.686;2023-04-24T07:20:50;96236.00;;;14.80
56286;BMP180;42191;47.562;9.686;2023-04-24T07:23:17;96242.00;;;14.80
56286;BMP180;42191;47.562;9.686;2023-04-24T07:25:43;96246.00;;;14.90
56286;BMP180;42191;47.562;9.686;2023-04-24T07:28:10;96251.00;;;14.90
56286;BMP180;42191;47.562;9.686;2023-04-24T07:30:36;96244.00;;;15.00
56286;BMP180;42191;47.562;9.686;2023-04-24T07:33:02;96240.00;;;15.00
56286;BMP180;42191;47.562;9.686;2023-04-24T07:35:28;96246.00;;;15.10
56286;BMP180;42191;47.562;9.686;2023-04-24T07:37:54;96249.00;;;15.20
56286;BMP180;42191;47.562;9.686;2023-04-24T07:40:22;96248.00;;;15.30
56286;BMP180;42191;47.562;9.686;2023-04-24T07:42:48;96257.00;;;15.30
56286;BMP180;42191;47.562;9.686;2023-04-24T07:45:15;96255.00;;;15.40
56286;BMP180;42191;47.562;9.686;2023-04-24T07:47:44;96260.00;;;15.50
56286;BMP180;42191;47.562;9.686;2023-04-24T07:50:12;96281.00;;;15.60
56286;BMP180;42191;47.562;9.686;2023-04-24T07:52:38;96267.00;;;15.70
56286;BMP180;42191;47.562;9.686;2023-04-24T07:55:05;96259.00;;;15.70
56286;BMP180;42191;47.562;9.686;2023-04-24T07:57:31;96265.00;;;15.80
56286;BMP180;42191;47.562;9.686;2023-04-24T07:59:57;96260.00;;;15.80
56286;BMP180;42191;47.562;9.686;2023-04-24T08:02:23;96261.00;;;15.80
56286;BMP180;42191;47.562;9.686;2023-04-24T08:04:53;96263.00;;;15.80
56286;BMP180;42191;47.562;9.686;2023-04-24T08:07:22;96264.00;;;15.90
56286;BMP180;42191;47.562;9.686;2023-04-24T08:09:48;96258.00;;;15.90
56286;BMP180;42191;47.562;9.686;2023-04-24T08:12:15;96257.00;;;16.00
56286;BMP180;42191;47.562;9.686;2023-04-24T08:14:41;96263.00;;;16.10
56286;BMP180;42191;47.562;9.686;2023-04-24T08:17:07;96264.00;;;16.20
56286;BMP180;42191;47.562;9.686;2023-04-24T08:19:33;96256.00;;;16.30
56286;BMP180;42191;47.562;9.686;2023-04-24T08:21:59;96260.00;;;16.40
56286;BMP180;42191;47.562;9.686;2023-04-24T08:24:25;96265.00;;;16.60
56286;BMP180;42191;47.562;9.686;2023-04-24T08:26:52;96263.00;;;16.70
56286;BMP180;42191;47.562;9.686;2023-04-24T08:29:20;96271.00;;;16.80
56286;BMP180;42191;47.562;9.686;2023-04-24T08:31:46;96258.00;;;17.00
56286;BMP180;42191;47.562;9.686;2023-04-24T08:34:12;96261.00;;;17.20
56286;BMP180;42191;47.562;9.686;2023-04-24T08:36:38;96265.00;;;17.30
56286;BMP180;42191;47.562;9.686;2023-04-24T08:39:06;96261.00;;;17.40
56286;BMP180;42191;47.562;9.686;2023-04-24T08:41:34;96264.00;;;17.60
56286;BMP180;42191;47.562;9.686;2023-04-24T08:44:02;96265.00;;;17.70
56286;BMP180;42191;47.562;9.686;2023-04-24T08:46:30;96274.00;;;17.80
56286;BMP180;42191;47.562;9.686;2023-04-24T08:48:57;96272.00;;;17.90
56286;BMP180;42191;47.562;9.686;2023-04-24T08:51:23;96266.00;;;17.90
56286;BMP180;42191;47.562;9.686;2023-04-24T08:53:54;96266.00;;;17.90
56286;BMP180;42191;47.562;9.686;2023-04-24T08:56:21;96267.00;;;17.90
56286;BMP180;42191;47.562;9.686;2023-04-24T08:58:50;96269.00;;;17.90
56286;BMP180;42191;47.562;9.686;2023-04-24T09:01:18;96277.00;;;17.90
56286;BMP180;42191;47.562;9.686;2023-04-24T09:03:49;96305.00;;;17.80
56286;BMP180;42191;47.562;9.686;2023-04-24T09:06:17;96353.00;;;17.60
56286;BMP180;42191;47.562;9.686;2023-04-24T09:08:45;96368.00;;;17.20
56286;BMP180;42191;47.562;9.686;2023-04-24T09:11:12;96363.00;;;16.70
56286;BMP180;42191;47.562;9.686;2023-04-24T09:13:38;96353.00;;;16.20
56286;BMP180;42191;47.562;9.686;2023-04-24T09:16:04;96357.00;;;15.80
56286;BMP180;42191;47.562;9.686;2023-04-24T09:18:30;96357.00;;;15.40
56286;BMP180;42191;47.562;9.686;2023-04-24T09:21:01;96360.00;;;15.10
56286;BMP180;42191;47.562;9.686;2023-04-24T09:23:29;96360.00;;;14.80
56286;BMP180;42191;47.562;9.686;2023-04-24T09:25:56;96352.00;;;14.40
56286;BMP180;42191;47.562;9.686;2023-04-24T09:28:41;96355.00;;;14.20
56286;BMP180;42191;47.562;9.686;2023-04-24T09:33:35;96364.00;;;13.80
56286;BMP180;42191;47.562;9.686;2023-04-24T09:36:01;96365.00;;;13.70
56286;BMP180;42191;47.562;9.686;2023-04-24T09:38:38;96368.00;;;13.60
56286;BMP180;42191;47.562;9.686;2023-04-24T09:41:08;96363.00;;;13.50
56286;BMP180;42191;47.562;9.686;2023-04-24T09:43:39;96366.00;;;13.40
56286;BMP180;42191;47.562;9.686;2023-04-24T09:46:08;96358.00;;;13.40
56286;BMP180;42191;47.562;9.686;2023-04-24T09:48:37;96371.00;;;13.30
56286;BMP180;42191;47.562;9.686;2023-04-24T09:51:04;96364.00;;;13.20
56286;BMP180;42191;47.562;9.686;2023-04-24T09:53:32;96368.00;;;13.20
56286;BMP180;42191;47.562;9.686;2023-04-24T09:56:09;96377.00;;;13.30
56286;BMP180;42191;47.562;9.686;2023-04-24T09:58:36;96368.00;;;13.30
56286;BMP180;42191;47.562;9.686;2023-04-24T10:01:03;96363.00;;;13.30
56286;BMP180;42191;47.562;9.686;2023-04-24T10:03:33;96362.00;;;13.30
56286;BMP180;42191;47.562;9.686;2023-04-24T10:06:03;96358.00;;;13.30
56286;BMP180;42191;47.562;9.686;2023-04-24T10:08:35;96374.00;;;13.30
56286;BMP180;42191;47.562;9.686;2023-04-24T10:11:02;96372.00;;;13.30
56286;BMP180;42191;47.562;9.686;2023-04-24T10:13:28;96365.00;;;13.30
56286;BMP180;42191;47.562;9.686;2023-04-24T10:15:54;96365.00;;;13.40
56286;BMP180;42191;47.562;9.686;2023-04-24T10:18:22;96366.00;;;13.50
56286;BMP180;42191;47.562;9.686;2023-04-24T10:20:49;96369.00;;;13.60
56286;BMP180;42191;47.562;9.686;2023-04-24T10:23:16;96376.00;;;13.60
56286;BMP180;42191;47.562;9.686;2023-04-24T10:25:45;96379.00;;;13.70
56286;BMP180;42191;47.562;9.686;2023-04-24T10:28:12;96364.00;;;13.80
56286;BMP180;42191;47.562;9.686;2023-04-24T10:30:39;96378.00;;;13.90
56286;BMP180;42191;47.562;9.686;2023-04-24T10:33:09;96380.00;;;14.10
56286;BMP180;42191;47.562;9.686;2023-04-24T10:35:40;96385.00;;;14.20
56286;BMP180;42191;47.562;9.686;2023-04-24T10:38:13;96391.00;;;14.20
56286;BMP180;42191;47.562;9.686;2023-04-24T10:40:39;96384.00;;;14.30
56286;BMP180;42191;47.562;9.686;2023-04-24T10:43:07;96371.00;;;14.40
56286;BMP180;42191;47.562;9.686;2023-04-24T10:45:36;96374.00;;;14.40
56286;BMP180;42191;47.562;9.686;2023-04-24T10:48:07;96374.00;;;14.50
56286;BMP180;42191;47.562;9.686;2023-04-24T10:50:53;96381.00;;;14.60
56286;BMP180;42191;47.562;9.686;2023-04-24T10:53:21;96386.00;;;14.60
56286;BMP180;42191;47.562;9.686;2023-04-24T10:55:59;96376.00;;;14.80
56286;BMP180;42191;47.562;9.686;2023-04-24T10:58:41;96386.00;;;14.90
56286;BMP180;42191;47.562;9.686;2023-04-24T11:01:24;96385.00;;;15.00
56286;BMP180;42191;47.562;9.686;2023-04-24T11:03:58;96396.00;;;15.00
56286;BMP180;42191;47.562;9.686;2023-04-24T11:06:32;96391.00;;;15.00
56286;BMP180;42191;47.562;9.686;2023-04-24T11:09:04;96401.00;;;15.00
56286;BMP180;42191;47.562;9.686;2023-04-24T11:11:32;96393.00;;;15.00
56286;BMP180;42191;47.562;9.686;2023-04-24T11:16:32;96399.00;;;15.10
56286;BMP180;42191;47.562;9.686;2023-04-24T11:19:04;96403.00;;;15.10
56286;BMP180;42191;47.562;9.686;2023-04-24T11:27:16;96388.00;;;15.40
56286;BMP180;42191;47.562;9.686;2023-04-24T11:29:49;96393.00;;;15.50
56286;BMP180;42191;47.562;9.686;2023-04-24T11:37:35;96398.00;;;16.00
56286;BMP180;42191;47.562;9.686;2023-04-24T11:40:03;96404.00;;;16.10
56286;BMP180;42191;47.562;9.686;2023-04-24T11:42:37;96391.00;;;16.20
56286;BMP180;42191;47.562;9.686;2023-04-24T11:45:11;96396.00;;;16.30
56286;BMP180;42191;47.562;9.686;2023-04-24T11:47:38;96392.00;;;16.40
56286;BMP180;42191;47.562;9.686;2023-04-24T11:50:06;96391.00;;;16.50
56286;BMP180;42191;47.562;9.686;2023-04-24T11:52:37;96389.00;;;16.60
56286;BMP180;42191;47.562;9.686;2023-04-24T11:55:05;96391.00;;;16.60
56286;BMP180;42191;47.562;9.686;2023-04-24T11:57:32;96382.00;;;16.60
56286;BMP180;42191;47.562;9.686;2023-04-24T12:00:04;96385.00;;;16.70
56286;BMP180;42191;47.562;9.686;2023-04-24T12:02:33;96389.00;;;16.70
56286;BMP180;42191;47.562;9.686;2023-04-24T12:05:00;96389.00;;;16.80
56286;BMP180;42191;47.562;9.686;2023-04-24T12:07:26;96377.00;;;16.90
56286;BMP180;42191;47.562;9.686;2023-04-24T12:09:59;96378.00;;;17.00
56286;BMP180;42191;47.562;9.686;2023-04-24T12:12:28;96379.00;;;17.10
56286;BMP180;42191;47.562;9.686;2023-04-24T12:14:58;96377.00;;;17.20
56286;BMP180;42191;47.562;9.686;2023-04-24T12:17:29;96375.00;;;17.30
56286;BMP180;42191;47.562;9.686;2023-04-24T12:20:01;96369.00;;;17.40
56286;BMP180;42191;47.562;9.686;2023-04-24T12:22:42;96372.00;;;17.50
56286;BMP180;42191;47.562;9.686;2023-04-24T12:25:11;96378.00;;;17.60
56286;BMP180;42191;47.562;9.686;2023-04-24T12:27:37;96380.00;;;17.70
56286;BMP180;42191;47.562;9.686;2023-04-24T12:30:05;96378.00;;;17.70
56286;BMP180;42191;47.562;9.686;2023-04-24T12:32:31;96378.00;;;17.80
56286;BMP180;42191;47.562;9.686;2023-04-24T12:34:58;96389.00;;;17.80
56286;BMP180;42191;47.562;9.686;2023-04-24T12:37:33;96387.00;;;17.80
56286;BMP180;42191;47.562;9.686;2023-04-24T12:40:10;96374.00;;;17.90
56286;BMP180;42191;47.562;9.686;2023-04-24T12:42:46;96383.00;;;17.90
56286;BMP180;42191;47.562;9.686;2023-04-24T12:45:14;96381.00;;;17.90
56286;BMP180;42191;47.562;9.686;2023-04-24T12:47:42;96374.00;;;18.00
56286;BMP180;42191;47.562;9.686;2023-04-24T12:50:10;96375.00;;;18.00
56286;BMP180;42191;47.562;9.686;2023-04-24T12:52:37;96374.00;;;18.10
56286;BMP180;42191;47.562;9.686;2023-04-24T12:55:05;96372.00;;;18.10
56286;BMP180;42191;47.562;9.686;2023-04-24T12:57:35;96384.00;;;18.20
56286;BMP180;42191;47.562;9.686;2023-04-24T13:00:01;96376.00;;;18.20
56286;BMP180;42191;47.562;9.686;2023-04-24T13:02:29;96375.00;;;18.20
56286;BMP180;42191;47.562;9.686;2023-04-24T13:04:57;96391.00;;;18.30
56286;BMP180;42191;47.562;9.686;2023-04-24T13:07:24;96370.00;;;18.30
56286;BMP180;42191;47.562;9.686;2023-04-24T13:09:52;96375.00;;;18.40
56286;BMP180;42191;47.562;9.686;2023-04-24T13:12:19;96381.00;;;18.40
56286;BMP180;42191;47.562;9.686;2023-04-24T13:14:46;96396.00;;;18.40
56286;BMP180;42191;47.562;9.686;2023-04-24T13:17:12;96368.00;;;18.50
56286;BMP180;42191;47.562;9.686;2023-04-24T13:19:43;96372.00;;;18.80
56286;BMP180;42191;47.562;9.686;2023-04-24T13:22:11;96357.00;;;19.10
56286;BMP180;42191;47.562;9.686;2023-04-24T13:24:38;96382.00;;;19.50
56286;BMP180;42191;47.562;9.686;2023-04-24T13:27:06;96368.00;;;19.90
56286;BMP180;42191;47.562;9.686;2023-04-24T13:29:33;96354.00;;;20.30
56286;BMP180;42191;47.562;9.686;2023-04-24T13:32:00;96357.00;;;20.70
56286;BMP180;42191;47.562;9.686;2023-04-24T13:34:26;96352.00;;;21.10
56286;BMP180;42191;47.562;9.686;2023-04-24T13:36:54;96341.00;;;21.60
56286;BMP180;42191;47.562;9.686;2023-04-24T13:39:22;96362.00;;;22.00
56286;BMP180;42191;47.562;9.686;2023-04-24T13:41:48;96357.00;;;22.50
56286;BMP180;42191;47.562;9.686;2023-04-24T13:44:15;96358.00;;;23.00
56286;BMP180;42191;47.562;9.686;2023-04-24T13:46:43;96365.00;;;23.50
56286;BMP180;42191;47.562;9.686;2023-04-24T13:49:11;96363.00;;;23.90
56286;BMP180;42191;47.562;9.686;2023-04-24T13:51:38;96348.00;;;24.20
56286;BMP180;42191;47.562;9.686;2023-04-24T13:54:04;96363.00;;;24.50
56286;BMP180;42191;47.562;9.686;2023-04-24T13:56:30;96359.00;;;24.70
56286;BMP180;42191;47.562;9.686;2023-04-24T13:58:56;96351.00;;;25.00
56286;BMP180;42191;47.562;9.686;2023-04-24T14:01:23;96362.00;;;25.20
56286;BMP180;42191;47.562;9.686;2023-04-24T14:03:54;96368.00;;;25.40
56286;BMP180;42191;47.562;9.686;2023-04-24T14:06:22;96358.00;;;25.40
56286;BMP180;42191;47.562;9.686;2023-04-24T14:08:49;96356.00;;;25.10
56286;BMP180;42191;47.562;9.686;2023-04-24T14:11:16;96354.00;;;24.70
56286;BMP180;42191;47.562;9.686;2023-04-24T14:13:43;96356.00;;;24.30
56286;BMP180;42191;47.562;9.686;2023-04-24T14:16:10;96356.00;;;24.20
56286;BMP180;42191;47.562;9.686;2023-04-24T14:18:37;96353.00;;;24.30
56286;BMP180;42191;47.562;9.686;2023-04-24T14:21:04;96366.00;;;24.30
56286;BMP180;42191;47.562;9.686;2023-04-24T14:23:30;96370.00;;;24.10
56286;BMP180;42191;47.562;9.686;2023-04-24T14:25:57;96351.00;;;23.80